Andrew J. Barberi — WYR3370 — position and weather

sailwx.info

Track history (hours):
 
Tides and Currents Weather Stations Pressure Air Temp Water Temp Dewpoint Dewpoint Depression Visibility Wind Speed Wind Dir Waves Ship Positions

Andrew J. Barberi

Owner: CITY OF NEW YORK, Brooklyn, NY. More information available from US FCC via Universal Licensing System and Coast Guard Vessel Documentation Center.

Last reported at 2015-Aug-30 13:33 UTC. Time now 2015-Aug-30 14:04 UTC.
Position N 40°39' W 074°04'.

Length 94 m; draft 4.3 m.

Type: Ship. MMSI: 367000150.

Date/timePositionNaut miles runAvg speedWind from/ knotsBaromVisibWave heightAir tempDewpointWater temp
2015-Aug-30 13:33N 40°39' W 074°04'0 0.0
2015-Aug-30 12:33N 40°39' W 074°04'0 0.1
2015-Aug-30 11:33N 40°39' W 074°04'0 0.1
2015-Aug-30 10:33N 40°39' W 074°04'0 0.2
2015-Aug-30 09:33N 40°39' W 074°04'0 0.0
2015-Aug-30 08:34N 40°39' W 074°04'0 0.0
2015-Aug-30 07:31N 40°39' W 074°04'0 0.0
2015-Aug-30 06:31N 40°39' W 074°04'0 0.0
2015-Aug-30 05:31N 40°39' W 074°04'0 0.0
2015-Aug-30 04:31N 40°39' W 074°04'0 0.0
2015-Aug-30 03:31N 40°39' W 074°04'0 0.0
2015-Aug-30 02:31N 40°39' W 074°04'0 0.0
2015-Aug-30 01:31N 40°39' W 074°04'0 0.0
2015-Aug-30 00:31N 40°39' W 074°04'0 0.0
2015-Aug-29 23:31N 40°39' W 074°04'0 0.0
2015-Aug-29 22:31N 40°39' W 074°04'0 0.0
2015-Aug-29 21:31N 40°39' W 074°04'0 0.0
2015-Aug-29 20:31N 40°39' W 074°04'0 0.0
2015-Aug-29 19:31N 40°39' W 074°04'0 0.1
2015-Aug-29 18:33N 40°39' W 074°04'0 0.1
2015-Aug-29 17:33N 40°39' W 074°04'4 3.9
2015-Aug-29 16:28N 40°42' W 074°01'4 4.0
2015-Aug-29 15:24N 40°39' W 074°04'0 0.1
2015-Aug-29 13:34N 40°39' W 074°04'0 0.2
2015-Aug-29 12:33N 40°39' W 074°04'0 0.2
2015-Aug-29 11:34N 40°39' W 074°04'0 0.2
2015-Aug-29 10:33N 40°39' W 074°04'0 0.2
2015-Aug-29 09:33N 40°39' W 074°04'0 0.0
2015-Aug-29 08:32N 40°39' W 074°04'0 0.0
2015-Aug-29 07:32N 40°39' W 074°04'0 0.0
2015-Aug-29 06:32N 40°39' W 074°04'0 0.0
2015-Aug-29 05:32N 40°39' W 074°04'4 2.2
2015-Aug-29 03:34N 40°42' W 074°01'4 4.2
2015-Aug-29 02:33N 40°39' W 074°04'0 0.2
2015-Aug-29 01:33N 40°39' W 074°04'0 0.2
2015-Aug-29 00:33N 40°39' W 074°04'0 0.2
2015-Aug-28 23:33N 40°39' W 074°04'2 1.9
2015-Aug-28 22:33N 40°40' W 074°03'2 1.5
2015-Aug-28 21:34N 40°42' W 074°02'4 2.4
2015-Aug-28 20:04N 40°39' W 074°04'0 0.0
2015-Aug-28 19:33N 40°39' W 074°04'0 0.0
2015-Aug-28 18:33N 40°39' W 074°04'0 0.0
2015-Aug-28 17:33N 40°39' W 074°04'0 0.1
2015-Aug-28 16:33N 40°39' W 074°04'4 4.3
2015-Aug-28 15:33N 40°42' W 074°01'0 0.0
2015-Aug-28 14:33N 40°42' W 074°01'4 4.3
2015-Aug-28 13:33N 40°39' W 074°04'0 0.0
2015-Aug-28 12:33N 40°39' W 074°04'0 0.0
2015-Aug-28 11:33N 40°39' W 074°04'3 2.7
2015-Aug-28 10:34N 40°41' W 074°02'3 2.8
2015-Aug-28 09:33N 40°39' W 074°04'0 0.0
2015-Aug-28 08:31N 40°39' W 074°04'0 0.0
2015-Aug-28 07:31N 40°39' W 074°04'0 0.0
2015-Aug-28 06:31N 40°39' W 074°04'0 0.0
2015-Aug-28 05:32N 40°39' W 074°04'0 0.0
2015-Aug-28 04:32N 40°39' W 074°04'0 0.0
2015-Aug-28 03:31N 40°39' W 074°04'0 0.0
2015-Aug-28 02:32N 40°39' W 074°04'0 0.0
2015-Aug-28 01:31N 40°39' W 074°04'0 0.0
2015-Aug-28 00:31N 40°39' W 074°04'0 0.0
2015-Aug-27 23:32N 40°39' W 074°04'0 0.0
2015-Aug-27 22:31N 40°39' W 074°04'0 0.0
2015-Aug-27 21:32N 40°39' W 074°04'0 0.0
2015-Aug-27 20:31N 40°39' W 074°04'0 0.0
2015-Aug-27 19:31N 40°39' W 074°04'0 0.0
2015-Aug-27 18:31N 40°39' W 074°04'0 0.0
2015-Aug-27 17:31N 40°39' W 074°04'0 0.0
2015-Aug-27 16:31N 40°39' W 074°04'0 0.0
2015-Aug-27 15:33N 40°39' W 074°04'0 0.0
2015-Aug-27 14:33N 40°39' W 074°04'0 0.0
2015-Aug-27 13:33N 40°39' W 074°04'0 0.0
2015-Aug-27 12:33N 40°39' W 074°04'0 0.0
2015-Aug-27 11:33N 40°39' W 074°04'0 0.0
2015-Aug-27 10:33N 40°39' W 074°04'0 0.0
2015-Aug-27 09:33N 40°39' W 074°04'0 0.0
2015-Aug-27 08:14N 40°39' W 074°04'0 0.0
2015-Aug-27 07:31N 40°39' W 074°04'0 0.0
2015-Aug-27 06:31N 40°39' W 074°04'0 0.0
2015-Aug-27 05:31N 40°39' W 074°04'0 0.0
2015-Aug-27 04:31N 40°39' W 074°04'0 0.0
2015-Aug-27 03:31N 40°39' W 074°04'0 0.0
2015-Aug-27 02:31N 40°39' W 074°04'0 0.0
2015-Aug-27 01:31N 40°39' W 074°04'0 0.0
2015-Aug-27 00:31N 40°39' W 074°04'0 0.0
2015-Aug-26 23:31N 40°39' W 074°04'0 0.0
2015-Aug-26 22:31N 40°39' W 074°04'0 0.0
2015-Aug-26 21:31N 40°39' W 074°04'0 0.0
2015-Aug-26 20:31N 40°39' W 074°04'0 0.0
2015-Aug-26 19:31N 40°39' W 074°04'0 0.0
2015-Aug-26 18:31N 40°39' W 074°04'0 0.0
2015-Aug-26 17:28N 40°39' W 074°04'0 0.0
2015-Aug-26 16:31N 40°39' W 074°04'0 0.0
2015-Aug-26 15:31N 40°39' W 074°04'0 0.0
2015-Aug-26 14:31N 40°39' W 074°04'0 0.0
2015-Aug-26 13:31N 40°39' W 074°04'0 0.0
2015-Aug-26 12:31N 40°39' W 074°04'0 0.0
2015-Aug-26 11:31N 40°39' W 074°04'0 0.0
2015-Aug-26 10:31N 40°39' W 074°04'0 0.0
2015-Aug-26 09:31N 40°39' W 074°04'0 0.0
2015-Aug-26 08:31N 40°39' W 074°04'0 0.0
2015-Aug-26 07:31N 40°39' W 074°04'0 0.0
2015-Aug-26 06:28N 40°39' W 074°04'0 0.0
2015-Aug-26 05:31N 40°39' W 074°04'0 0.0
2015-Aug-26 04:31N 40°39' W 074°04'0 0.0
2015-Aug-26 03:31N 40°39' W 074°04'0 0.0
2015-Aug-26 02:31N 40°39' W 074°04'0 0.0
2015-Aug-26 01:31N 40°39' W 074°04'0 0.0
2015-Aug-26 00:31N 40°39' W 074°04'0 0.0
2015-Aug-25 23:31N 40°39' W 074°04'0 0.0
2015-Aug-25 22:28N 40°39' W 074°04'0 0.0
2015-Aug-25 21:31N 40°39' W 074°04'0 0.0
2015-Aug-25 20:31N 40°39' W 074°04'0 0.0
2015-Aug-25 19:31N 40°39' W 074°04'0 0.0
2015-Aug-25 18:31N 40°39' W 074°04'0 0.0
2015-Aug-25 17:31N 40°39' W 074°04'0 0.0
2015-Aug-25 16:31N 40°39' W 074°04'0 0.0
2015-Aug-25 15:28N 40°39' W 074°04'0 0.0
2015-Aug-25 14:31N 40°39' W 074°04'0 0.0
2015-Aug-25 13:31N 40°39' W 074°04'0 0.0
2015-Aug-25 12:31N 40°39' W 074°04'0 0.0
2015-Aug-25 11:31N 40°39' W 074°04'0 0.0
2015-Aug-25 10:31N 40°39' W 074°04'0 0.0
2015-Aug-25 09:31N 40°39' W 074°04'0 0.0
2015-Aug-25 08:31N 40°39' W 074°04'0 0.0
2015-Aug-25 07:31N 40°39' W 074°04'0 0.0
2015-Aug-25 06:31N 40°39' W 074°04'0 0.0
2015-Aug-25 05:31N 40°39' W 074°04'0 0.0
2015-Aug-25 04:31N 40°39' W 074°04'0 0.0
2015-Aug-25 03:31N 40°39' W 074°04'0 0.0
2015-Aug-25 02:31N 40°39' W 074°04'0 0.0
2015-Aug-25 01:31N 40°39' W 074°04'0 0.0
2015-Aug-25 00:31N 40°39' W 074°04'0 0.0
2015-Aug-24 23:31N 40°39' W 074°04'0 0.0
2015-Aug-24 22:31N 40°39' W 074°04'0 0.0
2015-Aug-24 21:31N 40°39' W 074°04'0 0.0
2015-Aug-24 20:31N 40°39' W 074°04'0 0.0
2015-Aug-24 19:31N 40°39' W 074°04'0 0.0
2015-Aug-24 18:31N 40°39' W 074°04'0 0.0
2015-Aug-24 17:31N 40°39' W 074°04'0 0.0
2015-Aug-24 16:31N 40°39' W 074°04'0 0.0
2015-Aug-24 15:31N 40°39' W 074°04'0 0.0
2015-Aug-24 14:31N 40°39' W 074°04'0 0.0
2015-Aug-24 13:31N 40°39' W 074°04'0 0.0
2015-Aug-24 12:31N 40°39' W 074°04'0 0.0
2015-Aug-24 11:31N 40°39' W 074°04'0 0.0
2015-Aug-24 10:31N 40°39' W 074°04'0 0.0
2015-Aug-24 09:31N 40°39' W 074°04'0 0.0
2015-Aug-24 08:31N 40°39' W 074°04'0 0.0
2015-Aug-24 07:31N 40°39' W 074°04'0 0.0
2015-Aug-24 06:31N 40°39' W 074°04'0 0.0
2015-Aug-24 05:31N 40°39' W 074°04'0 0.0
2015-Aug-24 04:28N 40°39' W 074°04'0 0.0
2015-Aug-24 03:31N 40°39' W 074°04'0 0.0
2015-Aug-24 02:31N 40°39' W 074°04'0 0.0
2015-Aug-24 01:31N 40°39' W 074°04'0 0.0
2015-Aug-24 00:31N 40°39' W 074°04'0 0.0
2015-Aug-23 23:31N 40°39' W 074°04'0 0.0
2015-Aug-23 22:31N 40°39' W 074°04'0 0.0
2015-Aug-23 21:31N 40°39' W 074°04'0 0.0
2015-Aug-23 20:31N 40°39' W 074°04'0 0.0
2015-Aug-23 19:31N 40°39' W 074°04'0 0.0
2015-Aug-23 18:31N 40°39' W 074°04'0 0.0
2015-Aug-23 17:31N 40°39' W 074°04'0 0.0
2015-Aug-23 16:31N 40°39' W 074°04'0 0.0
2015-Aug-23 15:31N 40°39' W 074°04'0 0.0
2015-Aug-23 14:31N 40°39' W 074°04'0 0.0
2015-Aug-23 13:31N 40°39' W 074°04'0 0.0
2015-Aug-23 12:31N 40°39' W 074°04'0 0.0
2015-Aug-23 11:31N 40°39' W 074°04'0 0.0
2015-Aug-23 10:31N 40°39' W 074°04'0 0.0
2015-Aug-23 09:31N 40°39' W 074°04'0 0.0
2015-Aug-23 08:31N 40°39' W 074°04'0 0.0
2015-Aug-23 07:31N 40°39' W 074°04'0 0.0
2015-Aug-23 06:31N 40°39' W 074°04'0 0.0
2015-Aug-23 05:31N 40°39' W 074°04'0 0.0
2015-Aug-23 04:31N 40°39' W 074°04'0 0.0
2015-Aug-23 03:31N 40°39' W 074°04'0 0.0
2015-Aug-23 02:31N 40°39' W 074°04'0 0.0
2015-Aug-23 01:31N 40°39' W 074°04'0 0.0
2015-Aug-23 00:31N 40°39' W 074°04'0 0.0
2015-Aug-22 23:31N 40°39' W 074°04'0 0.0
2015-Aug-22 22:31N 40°39' W 074°04'0 0.0
2015-Aug-22 21:31N 40°39' W 074°04'0 0.0
2015-Aug-22 20:31N 40°39' W 074°04'0 0.0
2015-Aug-22 19:31N 40°39' W 074°04'0 0.0
2015-Aug-22 18:31N 40°39' W 074°04'0 0.0
2015-Aug-22 17:31N 40°39' W 074°04'0 0.0
2015-Aug-22 16:31N 40°39' W 074°04'0 0.0
2015-Aug-22 15:31N 40°39' W 074°04'0 0.0
2015-Aug-22 14:31N 40°39' W 074°04'0 0.0
2015-Aug-22 13:31N 40°39' W 074°04'0 0.0
2015-Aug-22 12:31N 40°39' W 074°04'0 0.0
2015-Aug-22 11:31N 40°39' W 074°04'0 0.0
2015-Aug-22 10:31N 40°39' W 074°04'0 0.0
2015-Aug-22 09:31N 40°39' W 074°04'0 0.0
2015-Aug-22 08:31N 40°39' W 074°04'0 0.0
2015-Aug-22 07:31N 40°39' W 074°04'0 0.0
2015-Aug-22 06:31N 40°39' W 074°04'0 0.0
2015-Aug-22 05:31N 40°39' W 074°04'0 0.0
2015-Aug-22 04:31N 40°39' W 074°04'0 0.0
2015-Aug-22 03:31N 40°39' W 074°04'0 0.0
2015-Aug-22 02:31N 40°39' W 074°04'0 0.0
2015-Aug-22 01:31N 40°39' W 074°04'0 0.0
2015-Aug-22 00:31N 40°39' W 074°04'0 0.0
2015-Aug-21 23:31N 40°39' W 074°04'0 0.0
2015-Aug-21 22:31N 40°39' W 074°04'0 0.0
2015-Aug-21 21:31N 40°39' W 074°04'0 0.0
2015-Aug-21 20:31N 40°39' W 074°04'0 0.0
2015-Aug-21 19:31N 40°39' W 074°04'0 0.0
2015-Aug-21 18:31N 40°39' W 074°04'0 0.0
2015-Aug-21 17:31N 40°39' W 074°04'0 0.0
2015-Aug-21 16:31N 40°39' W 074°04'0 0.0
2015-Aug-21 15:31N 40°39' W 074°04'0 0.0
2015-Aug-21 14:31N 40°39' W 074°04'0 0.0
2015-Aug-21 13:28N 40°39' W 074°04'0 0.0
2015-Aug-21 12:31N 40°39' W 074°04'0 0.0
2015-Aug-21 11:31N 40°39' W 074°04'0 0.0
2015-Aug-21 10:31N 40°39' W 074°04'0 0.0
2015-Aug-21 09:31N 40°39' W 074°04'0 0.0
2015-Aug-21 08:31N 40°39' W 074°04'0 0.0
2015-Aug-21 07:31N 40°39' W 074°04'0 0.0
2015-Aug-21 06:31N 40°39' W 074°04'0 0.0
2015-Aug-21 05:31N 40°39' W 074°04'0 0.0
2015-Aug-21 04:31N 40°39' W 074°04'0 0.0
2015-Aug-21 03:31N 40°39' W 074°04'0 0.0
2015-Aug-21 02:28N 40°39' W 074°04'0 0.0
2015-Aug-21 01:31N 40°39' W 074°04'0 0.0
2015-Aug-21 00:31N 40°39' W 074°04'0 0.0
2015-Aug-20 23:31N 40°39' W 074°04'0 0.0
2015-Aug-20 22:31N 40°39' W 074°04'0 0.0
2015-Aug-20 21:31N 40°39' W 074°04'0 0.0
2015-Aug-20 20:31N 40°39' W 074°04'0 0.0
2015-Aug-20 19:31N 40°39' W 074°04'0 0.0
2015-Aug-20 18:31N 40°39' W 074°04'0 0.0
2015-Aug-20 17:31N 40°39' W 074°04'0 0.0
2015-Aug-20 16:31N 40°39' W 074°04'0 0.0
2015-Aug-20 15:31N 40°39' W 074°04'0 0.0
2015-Aug-20 14:31N 40°39' W 074°04'  
Track history (hours):
 
Tides and Currents Weather Stations Pressure Air Temp Water Temp Dewpoint Dewpoint Depression Visibility Wind Speed Wind Dir Waves Ship Positions

Andrew J. Barberi

Owner: CITY OF NEW YORK, Brooklyn, NY. More information available from US FCC via Universal Licensing System and Coast Guard Vessel Documentation Center.

Last reported at 2015-Aug-30 13:33 UTC. Time now 2015-Aug-30 14:04 UTC.
Position N 40°39' W 074°04'.

Length 94 m; draft 4.3 m.

Type: Ship. MMSI: 367000150.

Date/timePositionNaut miles runAvg speedWind from/ knotsBaromVisibWave heightAir tempDewpointWater temp
2015-Aug-30 13:33N 40°39' W 074°04'0 0.0
2015-Aug-30 12:33N 40°39' W 074°04'0 0.1
2015-Aug-30 11:33N 40°39' W 074°04'0 0.1
2015-Aug-30 10:33N 40°39' W 074°04'0 0.2
2015-Aug-30 09:33N 40°39' W 074°04'0 0.0
2015-Aug-30 08:34N 40°39' W 074°04'0 0.0
2015-Aug-30 07:31N 40°39' W 074°04'0 0.0
2015-Aug-30 06:31N 40°39' W 074°04'0 0.0
2015-Aug-30 05:31N 40°39' W 074°04'0 0.0
2015-Aug-30 04:31N 40°39' W 074°04'0 0.0
2015-Aug-30 03:31N 40°39' W 074°04'0 0.0
2015-Aug-30 02:31N 40°39' W 074°04'0 0.0
2015-Aug-30 01:31N 40°39' W 074°04'0 0.0
2015-Aug-30 00:31N 40°39' W 074°04'0 0.0
2015-Aug-29 23:31N 40°39' W 074°04'0 0.0
2015-Aug-29 22:31N 40°39' W 074°04'0 0.0
2015-Aug-29 21:31N 40°39' W 074°04'0 0.0
2015-Aug-29 20:31N 40°39' W 074°04'0 0.0
2015-Aug-29 19:31N 40°39' W 074°04'0 0.1
2015-Aug-29 18:33N 40°39' W 074°04'0 0.1
2015-Aug-29 17:33N 40°39' W 074°04'4 3.9
2015-Aug-29 16:28N 40°42' W 074°01'4 4.0
2015-Aug-29 15:24N 40°39' W 074°04'0 0.1
2015-Aug-29 13:34N 40°39' W 074°04'0 0.2
2015-Aug-29 12:33N 40°39' W 074°04'0 0.2
2015-Aug-29 11:34N 40°39' W 074°04'0 0.2
2015-Aug-29 10:33N 40°39' W 074°04'0 0.2
2015-Aug-29 09:33N 40°39' W 074°04'0 0.0
2015-Aug-29 08:32N 40°39' W 074°04'0 0.0
2015-Aug-29 07:32N 40°39' W 074°04'0 0.0
2015-Aug-29 06:32N 40°39' W 074°04'0 0.0
2015-Aug-29 05:32N 40°39' W 074°04'4 2.2
2015-Aug-29 03:34N 40°42' W 074°01'4 4.2
2015-Aug-29 02:33N 40°39' W 074°04'0 0.2
2015-Aug-29 01:33N 40°39' W 074°04'0 0.2
2015-Aug-29 00:33N 40°39' W 074°04'0 0.2
2015-Aug-28 23:33N 40°39' W 074°04'2 1.9
2015-Aug-28 22:33N 40°40' W 074°03'2 1.5
2015-Aug-28 21:34N 40°42' W 074°02'4 2.4
2015-Aug-28 20:04N 40°39' W 074°04'0 0.0
2015-Aug-28 19:33N 40°39' W 074°04'0 0.0
2015-Aug-28 18:33N 40°39' W 074°04'0 0.0
2015-Aug-28 17:33N 40°39' W 074°04'0 0.1
2015-Aug-28 16:33N 40°39' W 074°04'4 4.3
2015-Aug-28 15:33N 40°42' W 074°01'0 0.0
2015-Aug-28 14:33N 40°42' W 074°01'4 4.3
2015-Aug-28 13:33N 40°39' W 074°04'0 0.0
2015-Aug-28 12:33N 40°39' W 074°04'0 0.0
2015-Aug-28 11:33N 40°39' W 074°04'3 2.7
2015-Aug-28 10:34N 40°41' W 074°02'3 2.8
2015-Aug-28 09:33N 40°39' W 074°04'0 0.0
2015-Aug-28 08:31N 40°39' W 074°04'0 0.0
2015-Aug-28 07:31N 40°39' W 074°04'0 0.0
2015-Aug-28 06:31N 40°39' W 074°04'0 0.0
2015-Aug-28 05:32N 40°39' W 074°04'0 0.0
2015-Aug-28 04:32N 40°39' W 074°04'0 0.0
2015-Aug-28 03:31N 40°39' W 074°04'0 0.0
2015-Aug-28 02:32N 40°39' W 074°04'0 0.0
2015-Aug-28 01:31N 40°39' W 074°04'0 0.0
2015-Aug-28 00:31N 40°39' W 074°04'0 0.0
2015-Aug-27 23:32N 40°39' W 074°04'0 0.0
2015-Aug-27 22:31N 40°39' W 074°04'0 0.0
2015-Aug-27 21:32N 40°39' W 074°04'0 0.0
2015-Aug-27 20:31N 40°39' W 074°04'0 0.0
2015-Aug-27 19:31N 40°39' W 074°04'0 0.0
2015-Aug-27 18:31N 40°39' W 074°04'0 0.0
2015-Aug-27 17:31N 40°39' W 074°04'0 0.0
2015-Aug-27 16:31N 40°39' W 074°04'0 0.0
2015-Aug-27 15:33N 40°39' W 074°04'0 0.0
2015-Aug-27 14:33N 40°39' W 074°04'0 0.0
2015-Aug-27 13:33N 40°39' W 074°04'0 0.0
2015-Aug-27 12:33N 40°39' W 074°04'0 0.0
2015-Aug-27 11:33N 40°39' W 074°04'0 0.0
2015-Aug-27 10:33N 40°39' W 074°04'0 0.0
2015-Aug-27 09:33N 40°39' W 074°04'0 0.0
2015-Aug-27 08:14N 40°39' W 074°04'0 0.0
2015-Aug-27 07:31N 40°39' W 074°04'0 0.0
2015-Aug-27 06:31N 40°39' W 074°04'0 0.0
2015-Aug-27 05:31N 40°39' W 074°04'0 0.0
2015-Aug-27 04:31N 40°39' W 074°04'0 0.0
2015-Aug-27 03:31N 40°39' W 074°04'0 0.0
2015-Aug-27 02:31N 40°39' W 074°04'0 0.0
2015-Aug-27 01:31N 40°39' W 074°04'0 0.0
2015-Aug-27 00:31N 40°39' W 074°04'0 0.0
2015-Aug-26 23:31N 40°39' W 074°04'0 0.0
2015-Aug-26 22:31N 40°39' W 074°04'0 0.0
2015-Aug-26 21:31N 40°39' W 074°04'0 0.0
2015-Aug-26 20:31N 40°39' W 074°04'0 0.0
2015-Aug-26 19:31N 40°39' W 074°04'0 0.0
2015-Aug-26 18:31N 40°39' W 074°04'0 0.0
2015-Aug-26 17:28N 40°39' W 074°04'0 0.0
2015-Aug-26 16:31N 40°39' W 074°04'0 0.0
2015-Aug-26 15:31N 40°39' W 074°04'0 0.0
2015-Aug-26 14:31N 40°39' W 074°04'0 0.0
2015-Aug-26 13:31N 40°39' W 074°04'0 0.0
2015-Aug-26 12:31N 40°39' W 074°04'0 0.0
2015-Aug-26 11:31N 40°39' W 074°04'0 0.0
2015-Aug-26 10:31N 40°39' W 074°04'0 0.0
2015-Aug-26 09:31N 40°39' W 074°04'0 0.0
2015-Aug-26 08:31N 40°39' W 074°04'0 0.0
2015-Aug-26 07:31N 40°39' W 074°04'0 0.0
2015-Aug-26 06:28N 40°39' W 074°04'0 0.0
2015-Aug-26 05:31N 40°39' W 074°04'0 0.0
2015-Aug-26 04:31N 40°39' W 074°04'0 0.0
2015-Aug-26 03:31N 40°39' W 074°04'0 0.0
2015-Aug-26 02:31N 40°39' W 074°04'0 0.0
2015-Aug-26 01:31N 40°39' W 074°04'0 0.0
2015-Aug-26 00:31N 40°39' W 074°04'0 0.0
2015-Aug-25 23:31N 40°39' W 074°04'0 0.0
2015-Aug-25 22:28N 40°39' W 074°04'0 0.0
2015-Aug-25 21:31N 40°39' W 074°04'0 0.0
2015-Aug-25 20:31N 40°39' W 074°04'0 0.0
2015-Aug-25 19:31N 40°39' W 074°04'0 0.0
2015-Aug-25 18:31N 40°39' W 074°04'0 0.0
2015-Aug-25 17:31N 40°39' W 074°04'0 0.0
2015-Aug-25 16:31N 40°39' W 074°04'0 0.0
2015-Aug-25 15:28N 40°39' W 074°04'0 0.0
2015-Aug-25 14:31N 40°39' W 074°04'0 0.0
2015-Aug-25 13:31N 40°39' W 074°04'0 0.0
2015-Aug-25 12:31N 40°39' W 074°04'0 0.0
2015-Aug-25 11:31N 40°39' W 074°04'0 0.0
2015-Aug-25 10:31N 40°39' W 074°04'0 0.0
2015-Aug-25 09:31N 40°39' W 074°04'0 0.0
2015-Aug-25 08:31N 40°39' W 074°04'0 0.0
2015-Aug-25 07:31N 40°39' W 074°04'0 0.0
2015-Aug-25 06:31N 40°39' W 074°04'0 0.0
2015-Aug-25 05:31N 40°39' W 074°04'0 0.0
2015-Aug-25 04:31N 40°39' W 074°04'0 0.0
2015-Aug-25 03:31N 40°39' W 074°04'0 0.0
2015-Aug-25 02:31N 40°39' W 074°04'0 0.0
2015-Aug-25 01:31N 40°39' W 074°04'0 0.0
2015-Aug-25 00:31N 40°39' W 074°04'0 0.0
2015-Aug-24 23:31N 40°39' W 074°04'0 0.0
2015-Aug-24 22:31N 40°39' W 074°04'0 0.0
2015-Aug-24 21:31N 40°39' W 074°04'0 0.0
2015-Aug-24 20:31N 40°39' W 074°04'0 0.0
2015-Aug-24 19:31N 40°39' W 074°04'0 0.0
2015-Aug-24 18:31N 40°39' W 074°04'0 0.0
2015-Aug-24 17:31N 40°39' W 074°04'0 0.0
2015-Aug-24 16:31N 40°39' W 074°04'0 0.0
2015-Aug-24 15:31N 40°39' W 074°04'0 0.0
2015-Aug-24 14:31N 40°39' W 074°04'0 0.0
2015-Aug-24 13:31N 40°39' W 074°04'0 0.0
2015-Aug-24 12:31N 40°39' W 074°04'0 0.0
2015-Aug-24 11:31N 40°39' W 074°04'0 0.0
2015-Aug-24 10:31N 40°39' W 074°04'0 0.0
2015-Aug-24 09:31N 40°39' W 074°04'0 0.0
2015-Aug-24 08:31N 40°39' W 074°04'0 0.0
2015-Aug-24 07:31N 40°39' W 074°04'0 0.0
2015-Aug-24 06:31N 40°39' W 074°04'0 0.0
2015-Aug-24 05:31N 40°39' W 074°04'0 0.0
2015-Aug-24 04:28N 40°39' W 074°04'0 0.0
2015-Aug-24 03:31N 40°39' W 074°04'0 0.0
2015-Aug-24 02:31N 40°39' W 074°04'0 0.0
2015-Aug-24 01:31N 40°39' W 074°04'0 0.0
2015-Aug-24 00:31N 40°39' W 074°04'0 0.0
2015-Aug-23 23:31N 40°39' W 074°04'0 0.0
2015-Aug-23 22:31N 40°39' W 074°04'0 0.0
2015-Aug-23 21:31N 40°39' W 074°04'0 0.0
2015-Aug-23 20:31N 40°39' W 074°04'0 0.0
2015-Aug-23 19:31N 40°39' W 074°04'0 0.0
2015-Aug-23 18:31N 40°39' W 074°04'0 0.0
2015-Aug-23 17:31N 40°39' W 074°04'0 0.0
2015-Aug-23 16:31N 40°39' W 074°04'0 0.0
2015-Aug-23 15:31N 40°39' W 074°04'0 0.0
2015-Aug-23 14:31N 40°39' W 074°04'0 0.0
2015-Aug-23 13:31N 40°39' W 074°04'0 0.0
2015-Aug-23 12:31N 40°39' W 074°04'0 0.0
2015-Aug-23 11:31N 40°39' W 074°04'0 0.0
2015-Aug-23 10:31N 40°39' W 074°04'0 0.0
2015-Aug-23 09:31N 40°39' W 074°04'0 0.0
2015-Aug-23 08:31N 40°39' W 074°04'0 0.0
2015-Aug-23 07:31N 40°39' W 074°04'0 0.0
2015-Aug-23 06:31N 40°39' W 074°04'0 0.0
2015-Aug-23 05:31N 40°39' W 074°04'0 0.0
2015-Aug-23 04:31N 40°39' W 074°04'0 0.0
2015-Aug-23 03:31N 40°39' W 074°04'0 0.0
2015-Aug-23 02:31N 40°39' W 074°04'0 0.0
2015-Aug-23 01:31N 40°39' W 074°04'0 0.0
2015-Aug-23 00:31N 40°39' W 074°04'0 0.0
2015-Aug-22 23:31N 40°39' W 074°04'0 0.0
2015-Aug-22 22:31N 40°39' W 074°04'0 0.0
2015-Aug-22 21:31N 40°39' W 074°04'0 0.0
2015-Aug-22 20:31N 40°39' W 074°04'0 0.0
2015-Aug-22 19:31N 40°39' W 074°04'0 0.0
2015-Aug-22 18:31N 40°39' W 074°04'0 0.0
2015-Aug-22 17:31N 40°39' W 074°04'0 0.0
2015-Aug-22 16:31N 40°39' W 074°04'0 0.0
2015-Aug-22 15:31N 40°39' W 074°04'0 0.0
2015-Aug-22 14:31N 40°39' W 074°04'0 0.0
2015-Aug-22 13:31N 40°39' W 074°04'0 0.0
2015-Aug-22 12:31N 40°39' W 074°04'0 0.0
2015-Aug-22 11:31N 40°39' W 074°04'0 0.0
2015-Aug-22 10:31N 40°39' W 074°04'0 0.0
2015-Aug-22 09:31N 40°39' W 074°04'0 0.0
2015-Aug-22 08:31N 40°39' W 074°04'0 0.0
2015-Aug-22 07:31N 40°39' W 074°04'0 0.0
2015-Aug-22 06:31N 40°39' W 074°04'0 0.0
2015-Aug-22 05:31N 40°39' W 074°04'0 0.0
2015-Aug-22 04:31N 40°39' W 074°04'0 0.0
2015-Aug-22 03:31N 40°39' W 074°04'0 0.0
2015-Aug-22 02:31N 40°39' W 074°04'0 0.0
2015-Aug-22 01:31N 40°39' W 074°04'0 0.0
2015-Aug-22 00:31N 40°39' W 074°04'0 0.0
2015-Aug-21 23:31N 40°39' W 074°04'0 0.0
2015-Aug-21 22:31N 40°39' W 074°04'0 0.0
2015-Aug-21 21:31N 40°39' W 074°04'0 0.0
2015-Aug-21 20:31N 40°39' W 074°04'0 0.0
2015-Aug-21 19:31N 40°39' W 074°04'0 0.0
2015-Aug-21 18:31N 40°39' W 074°04'0 0.0
2015-Aug-21 17:31N 40°39' W 074°04'0 0.0
2015-Aug-21 16:31N 40°39' W 074°04'0 0.0
2015-Aug-21 15:31N 40°39' W 074°04'0 0.0
2015-Aug-21 14:31N 40°39' W 074°04'0 0.0
2015-Aug-21 13:28N 40°39' W 074°04'0 0.0
2015-Aug-21 12:31N 40°39' W 074°04'0 0.0
2015-Aug-21 11:31N 40°39' W 074°04'0 0.0
2015-Aug-21 10:31N 40°39' W 074°04'0 0.0
2015-Aug-21 09:31N 40°39' W 074°04'0 0.0
2015-Aug-21 08:31N 40°39' W 074°04'0 0.0
2015-Aug-21 07:31N 40°39' W 074°04'0 0.0
2015-Aug-21 06:31N 40°39' W 074°04'0 0.0
2015-Aug-21 05:31N 40°39' W 074°04'0 0.0
2015-Aug-21 04:31N 40°39' W 074°04'0 0.0
2015-Aug-21 03:31N 40°39' W 074°04'0 0.0
2015-Aug-21 02:28N 40°39' W 074°04'0 0.0
2015-Aug-21 01:31N 40°39' W 074°04'0 0.0
2015-Aug-21 00:31N 40°39' W 074°04'0 0.0
2015-Aug-20 23:31N 40°39' W 074°04'0 0.0
2015-Aug-20 22:31N 40°39' W 074°04'0 0.0
2015-Aug-20 21:31N 40°39' W 074°04'0 0.0
2015-Aug-20 20:31N 40°39' W 074°04'0 0.0
2015-Aug-20 19:31N 40°39' W 074°04'0 0.0
2015-Aug-20 18:31N 40°39' W 074°04'0 0.0
2015-Aug-20 17:31N 40°39' W 074°04'0 0.0
2015-Aug-20 16:31N 40°39' W 074°04'0 0.0
2015-Aug-20 15:31N 40°39' W 074°04'0 0.0
2015-Aug-20 14:31N 40°39' W 074°04'  

Dump ship's entire track history